Terminal Aerodrome Forecast
Issued by NWS Northern Indiana

Home | Current Version | Previous Version | Text Only | Print | Product List | Glossary On
Versions: 1 2 3 4 5 6 7 8 9 10 11 12 13 14 15
000
FTUS43 KIWX 192320
TAFFWA
TAF
KFWA 192320Z 2000/2024 21017G24KT P6SM -RA SCT025 OVC100
      WS020/21050KT
     FM200800 21018G25KT P6SM -RA OVC070 WS020/22055KT
     FM201430 21021G28KT 6SM SHRA BR OVC025=

USA.gov is the U.S. government's official web portal to all federal, state and local government web resources and services.